Time;durP1;ratioP1;P1;durP2;ratioP2;P2;SDS_P1;SDS_P2;PMS_P1;PMS_P2;Temp;Humidity;BMP_temperature;BMP_pressure;BME280_temperature;BME280_humidity;BME280_pressure;Samples;Min_cycle;Max_cycle;Signal;HPM_P1;HPM_P2
2023/07/26 00:03:33;;;;;;;104.97;44.67;;;;;;;;;;10556418;28;20553;-84
2023/07/26 00:08:34;;;;;;;98.55;45.08;;;;;;;;;;10559453;28;20039;-83
2023/07/26 00:13:35;;;;;;;86.75;40.50;;;;;;;;;;10545740;28;20035;-84
2023/07/26 00:18:38;;;;;;;51.65;31.13;;;;;;;;;;10570774;28;20042;-83
2023/07/26 00:23:39;;;;;;;55.85;31.02;;;;;;;;;;10563063;28;20142;-84
2023/07/26 00:28:40;;;;;;;67.40;33.95;;;;;;;;;;10558222;28;20027;-83
2023/07/26 00:33:41;;;;;;;58.10;32.65;;;;;;;;;;10557372;28;20036;-84
2023/07/26 00:38:42;;;;;;;60.70;33.80;;;;;;;;;;10568353;28;20078;-83
2023/07/26 00:43:43;;;;;;;78.57;37.75;;;;;;;;;;10569102;28;20547;-84
2023/07/26 00:48:45;;;;;;;100.88;42.72;;;;;;;;;;10569201;28;20081;-83
2023/07/26 00:53:46;;;;;;;83.30;40.83;;;;;;;;;;10523929;28;20036;-84
2023/07/26 00:58:47;;;;;;;94.20;41.58;;;;;;;;;;10549951;28;20031;-83
2023/07/26 01:03:48;;;;;;;89.07;39.35;;;;;;;;;;10555099;28;20039;-83
2023/07/26 01:08:49;;;;;;;79.53;37.42;;;;;;;;;;10560341;28;20057;-84
2023/07/26 01:13:59;;;;;;;75.90;37.22;;;;;;;;;;10568013;28;20028;-83
2023/07/26 01:19:00;;;;;;;67.30;33.65;;;;;;;;;;10553793;28;20032;-83
2023/07/26 01:24:01;;;;;;;83.65;36.63;;;;;;;;;;10564918;28;20052;-84
2023/07/26 01:29:02;;;;;;;63.92;32.97;;;;;;;;;;10568401;28;20088;-84
2023/07/26 01:34:05;;;;;;;67.32;33.13;;;;;;;;;;10566819;28;20032;-84
2023/07/26 01:39:07;;;;;;;59.53;30.33;;;;;;;;;;10567445;28;20027;-84
2023/07/26 01:44:08;;;;;;;79.65;33.30;;;;;;;;;;10559829;28;20046;-84
2023/07/26 01:49:09;;;;;;;63.55;30.98;;;;;;;;;;10576189;28;20559;-83
2023/07/26 01:54:11;;;;;;;80.20;34.08;;;;;;;;;;10567926;28;20034;-83
2023/07/26 01:59:12;;;;;;;78.93;35.58;;;;;;;;;;10569824;28;20114;-83
2023/07/26 02:04:13;;;;;;;79.43;34.42;;;;;;;;;;10575359;28;20763;-83
2023/07/26 02:09:14;;;;;;;71.53;32.47;;;;;;;;;;10571793;28;20117;-83
2023/07/26 02:14:16;;;;;;;70.53;32.10;;;;;;;;;;10560308;28;20032;-83
2023/07/26 02:19:17;;;;;;;92.95;35.72;;;;;;;;;;10575625;28;20027;-85
2023/07/26 02:24:18;;;;;;;150.55;41.72;;;;;;;;;;10562129;28;20070;-83
2023/07/26 02:29:19;;;;;;;104.85;38.78;;;;;;;;;;10575643;28;20566;-83
2023/07/26 02:34:20;;;;;;;61.70;29.10;;;;;;;;;;10575445;28;20031;-83
2023/07/26 02:39:21;;;;;;;62.53;30.15;;;;;;;;;;10563306;28;20088;-83
2023/07/26 02:44:22;;;;;;;103.93;37.45;;;;;;;;;;10550242;28;20043;-83
2023/07/26 02:49:23;;;;;;;119.45;38.10;;;;;;;;;;10550002;28;20055;-83
2023/07/26 02:54:24;;;;;;;118.78;38.13;;;;;;;;;;10548089;28;20118;-84
2023/07/26 02:59:25;;;;;;;100.95;35.17;;;;;;;;;;10571424;28;20498;-84
2023/07/26 03:04:26;;;;;;;89.80;33.03;;;;;;;;;;10549956;28;20028;-84
2023/07/26 03:09:27;;;;;;;79.40;32.88;;;;;;;;;;10569711;28;20036;-84
2023/07/26 03:14:28;;;;;;;104.13;36.13;;;;;;;;;;10558192;28;20610;-84
2023/07/26 03:19:29;;;;;;;79.03;30.38;;;;;;;;;;10555515;28;20035;-85
2023/07/26 03:24:30;;;;;;;71.15;30.65;;;;;;;;;;10568006;28;20047;-83
2023/07/26 03:29:31;;;;;;;68.47;30.02;;;;;;;;;;10559125;28;20028;-85
2023/07/26 03:34:32;;;;;;;104.18;36.72;;;;;;;;;;10569943;28;20583;-84
2023/07/26 03:39:33;;;;;;;90.03;35.08;;;;;;;;;;10552887;28;20036;-86
2023/07/26 03:44:34;;;;;;;95.40;36.20;;;;;;;;;;10559509;28;20043;-84
2023/07/26 03:49:35;;;;;;;91.88;35.67;;;;;;;;;;10559982;28;20035;-84
2023/07/26 03:54:36;;;;;;;78.07;33.03;;;;;;;;;;10556694;28;20060;-83
2023/07/26 03:59:37;;;;;;;71.85;32.78;;;;;;;;;;10555095;28;20040;-85
2023/07/26 04:04:38;;;;;;;70.85;32.55;;;;;;;;;;10564587;28;20043;-83
2023/07/26 04:09:39;;;;;;;66.05;33.08;;;;;;;;;;10570024;28;20027;-82
2023/07/26 04:14:41;;;;;;;62.53;31.58;;;;;;;;;;10570800;28;20490;-83
2023/07/26 04:19:42;;;;;;;67.18;32.92;;;;;;;;;;10555093;28;20040;-84
2023/07/26 04:24:43;;;;;;;71.40;32.60;;;;;;;;;;10569489;28;20090;-85
2023/07/26 04:29:44;;;;;;;87.18;37.83;;;;;;;;;;10555767;28;20046;-86
2023/07/26 04:34:45;;;;;;;90.22;37.70;;;;;;;;;;10534696;28;20057;-84
2023/07/26 04:39:47;;;;;;;99.82;41.05;;;;;;;;;;10568773;28;20030;-84
2023/07/26 04:44:48;;;;;;;88.68;38.33;;;;;;;;;;10569544;28;20028;-84
2023/07/26 04:49:49;;;;;;;124.80;43.75;;;;;;;;;;10569364;28;20068;-85
2023/07/26 04:54:51;;;;;;;92.47;38.92;;;;;;;;;;10569229;28;20036;-85
2023/07/26 04:59:52;;;;;;;174.30;49.83;;;;;;;;;;10569075;28;20031;-85
2023/07/26 05:04:53;;;;;;;133.95;45.80;;;;;;;;;;10567098;28;20062;-84
2023/07/26 05:09:54;;;;;;;30.27;12.82;;;;;;;;;;10568885;28;20032;-82
2023/07/26 05:14:55;;;;;;;32.33;11.75;;;;;;;;;;10568985;28;20439;-82
2023/07/26 05:19:56;;;;;;;15.80;9.43;;;;;;;;;;10567799;28;20038;-83
2023/07/26 05:24:57;;;;;;;17.95;9.32;;;;;;;;;;10568518;28;20789;-84
2023/07/26 05:29:59;;;;;;;18.40;9.93;;;;;;;;;;10568417;28;20027;-83
2023/07/26 05:35:00;;;;;;;24.83;11.93;;;;;;;;;;10569627;28;20792;-84
2023/07/26 05:40:01;;;;;;;15.90;10.40;;;;;;;;;;10567195;28;20134;-84
2023/07/26 05:45:02;;;;;;;22.02;12.73;;;;;;;;;;10568745;28;20040;-83
2023/07/26 05:50:03;;;;;;;30.25;15.82;;;;;;;;;;10568231;28;20031;-83
2023/07/26 05:55:04;;;;;;;26.17;13.80;;;;;;;;;;10567731;28;20035;-83
2023/07/26 06:00:05;;;;;;;29.95;14.50;;;;;;;;;;10568439;28;20031;-83
2023/07/26 06:05:07;;;;;;;23.70;14.75;;;;;;;;;;10568349;28;20035;-83
2023/07/26 06:10:08;;;;;;;27.73;15.18;;;;;;;;;;10566487;28;20035;-85
2023/07/26 06:15:10;;;;;;;30.02;16.65;;;;;;;;;;10568141;28;20058;-82
2023/07/26 06:20:11;;;;;;;34.30;18.27;;;;;;;;;;10567347;28;20036;-83
2023/07/26 06:25:12;;;;;;;30.63;17.10;;;;;;;;;;10567773;28;20043;-83
2023/07/26 06:30:15;;;;;;;25.30;14.55;;;;;;;;;;10566010;28;20035;-83
2023/07/26 06:35:17;;;;;;;22.15;12.23;;;;;;;;;;10574748;28;20027;-83
2023/07/26 06:40:18;;;;;;;18.10;10.95;;;;;;;;;;10575090;28;20118;-84
2023/07/26 06:45:19;;;;;;;17.92;9.52;;;;;;;;;;10574730;28;20032;-83
2023/07/26 06:50:20;;;;;;;22.02;11.70;;;;;;;;;;10574193;28;20023;-84
2023/07/26 06:55:21;;;;;;;24.85;13.45;;;;;;;;;;10574234;28;20443;-83
2023/07/26 07:00:22;;;;;;;22.20;13.60;;;;;;;;;;10574616;28;20039;-84
2023/07/26 07:05:23;;;;;;;22.15;13.70;;;;;;;;;;10572069;28;20024;-84
2023/07/26 07:10:24;;;;;;;24.48;13.93;;;;;;;;;;10573304;28;20085;-84
2023/07/26 07:15:25;;;;;;;20.42;13.05;;;;;;;;;;10567561;28;20039;-84
2023/07/26 07:20:26;;;;;;;25.58;13.95;;;;;;;;;;10565551;28;20031;-83
2023/07/26 07:25:27;;;;;;;21.95;12.13;;;;;;;;;;10572638;28;20138;-84
2023/07/26 07:30:28;;;;;;;16.67;9.80;;;;;;;;;;10561607;28;20822;-83
2023/07/26 07:35:29;;;;;;;15.05;8.75;;;;;;;;;;10569543;28;20034;-83
2023/07/26 07:40:30;;;;;;;12.00;7.88;;;;;;;;;;10573128;28;20554;-83
2023/07/26 07:45:31;;;;;;;17.23;10.57;;;;;;;;;;10572456;28;20122;-83
2023/07/26 07:50:32;;;;;;;14.98;10.65;;;;;;;;;;10572830;28;20410;-83
2023/07/26 07:55:37;;;;;;;17.00;11.52;;;;;;;;;;10571634;28;20023;-85
2023/07/26 08:00:38;;;;;;;17.85;11.45;;;;;;;;;;10571148;28;20043;-85
2023/07/26 08:05:39;;;;;;;14.85;10.70;;;;;;;;;;10560031;28;20031;-83
2023/07/26 08:10:40;;;;;;;14.77;10.30;;;;;;;;;;10572524;28;20653;-86
2023/07/26 08:15:41;;;;;;;14.82;11.60;;;;;;;;;;10571298;28;20075;-84
2023/07/26 08:20:42;;;;;;;17.05;11.82;;;;;;;;;;10570072;28;20027;-84
2023/07/26 08:25:43;;;;;;;18.83;12.48;;;;;;;;;;10570588;28;20051;-85
2023/07/26 08:30:44;;;;;;;16.88;11.95;;;;;;;;;;10571517;28;20042;-84
2023/07/26 08:35:45;;;;;;;15.93;10.02;;;;;;;;;;10568377;28;20042;-86
2023/07/26 08:40:48;;;;;;;13.88;9.23;;;;;;;;;;10569020;28;20028;-85
2023/07/26 08:45:50;;;;;;;13.05;9.48;;;;;;;;;;10570650;28;20125;-84
2023/07/26 08:50:51;;;;;;;13.80;10.55;;;;;;;;;;10568895;28;20573;-84
2023/07/26 08:55:52;;;;;;;15.77;10.85;;;;;;;;;;10569043;28;20024;-85
2023/07/26 09:00:54;;;;;;;14.52;10.90;;;;;;;;;;10569817;28;20114;-84
2023/07/26 09:06:02;;;;;;;13.23;7.60;;;;;;;;;;10567981;28;20767;-83
2023/07/26 09:11:20;;;;;;;13.98;8.00;;;;;;;;;;10568910;28;20112;-83
2023/07/26 09:16:21;;;;;;;13.88;8.02;;;;;;;;;;10569210;28;20035;-83
2023/07/26 09:21:26;;;;;;;15.35;8.57;;;;;;;;;;10568129;28;20039;-84
2023/07/26 09:26:40;;;;;;;14.63;8.43;;;;;;;;;;10568125;28;20089;-85
2023/07/26 09:31:43;;;;;;;17.88;9.93;;;;;;;;;;10567957;28;20040;-83
2023/07/26 09:36:48;;;;;;;17.05;9.10;;;;;;;;;;10568453;28;20035;-84
2023/07/26 09:41:50;;;;;;;15.00;8.02;;;;;;;;;;10568532;28;20040;-86
2023/07/26 09:46:56;;;;;;;17.58;9.15;;;;;;;;;;10569688;28;20031;-84
2023/07/26 09:51:58;;;;;;;10.85;6.72;;;;;;;;;;10568288;28;20031;-84
2023/07/26 09:56:59;;;;;;;11.45;6.07;;;;;;;;;;10568658;28;20108;-84
2023/07/26 10:02:02;;;;;;;12.70;6.65;;;;;;;;;;10566080;28;20135;-82
2023/07/26 10:07:05;;;;;;;10.45;6.32;;;;;;;;;;10571611;28;20102;-83
2023/07/26 10:12:08;;;;;;;9.73;5.90;;;;;;;;;;10575278;28;20589;-84
2023/07/26 10:17:11;;;;;;;8.23;4.85;;;;;;;;;;10573900;28;20031;-84
2023/07/26 10:22:12;;;;;;;9.13;5.38;;;;;;;;;;10575714;28;20051;-83
2023/07/26 10:27:13;;;;;;;9.75;5.22;;;;;;;;;;10574969;28;20032;-84
2023/07/26 10:32:14;;;;;;;10.98;5.95;;;;;;;;;;10575484;28;20066;-84
2023/07/26 10:37:19;;;;;;;10.57;5.82;;;;;;;;;;10574737;28;20034;-83
2023/07/26 10:42:24;;;;;;;9.75;5.70;;;;;;;;;;10575725;28;20039;-84
2023/07/26 10:47:25;;;;;;;8.93;5.03;;;;;;;;;;10573546;28;20075;-84
2023/07/26 10:52:35;;;;;;;8.25;5.05;;;;;;;;;;10575038;28;20098;-85
2023/07/26 10:57:36;;;;;;;10.57;5.15;;;;;;;;;;10574575;28;20494;-84
2023/07/26 11:02:44;;;;;;;10.85;5.95;;;;;;;;;;10574653;27;20036;-83
2023/07/26 11:07:51;;;;;;;10.65;5.72;;;;;;;;;;10573955;28;20426;-84
2023/07/26 11:13:07;;;;;;;11.70;6.57;;;;;;;;;;10573685;28;20106;-83
2023/07/26 11:18:08;;;;;;;8.85;6.18;;;;;;;;;;10570775;28;20032;-83
2023/07/26 11:23:20;;;;;;;16.35;8.18;;;;;;;;;;10572870;28;20085;-84
2023/07/26 11:28:21;;;;;;;12.98;7.68;;;;;;;;;;10571171;28;20027;-83
2023/07/26 11:33:41;;;;;;;15.32;7.45;;;;;;;;;;10572964;28;20026;-84
2023/07/26 11:38:43;;;;;;;13.88;7.43;;;;;;;;;;10573224;28;20035;-84
2023/07/26 11:43:44;;;;;;;11.82;6.78;;;;;;;;;;10572390;27;20084;-83
2023/07/26 11:48:45;;;;;;;14.02;7.47;;;;;;;;;;10571790;28;20516;-83
2023/07/26 11:53:47;;;;;;;14.23;7.97;;;;;;;;;;10572264;28;20023;-83
2023/07/26 11:58:48;;;;;;;13.15;7.95;;;;;;;;;;10570551;28;20396;-83
2023/07/26 12:03:49;;;;;;;14.68;8.13;;;;;;;;;;10571813;28;20031;-83
2023/07/26 12:08:50;;;;;;;15.00;9.02;;;;;;;;;;10572202;28;20037;-83
2023/07/26 12:13:56;;;;;;;18.25;10.20;;;;;;;;;;10548868;28;20063;-84
2023/07/26 12:18:58;;;;;;;20.63;10.30;;;;;;;;;;10556095;28;20024;-83
2023/07/26 12:24:00;;;;;;;11.95;7.50;;;;;;;;;;10556215;28;20086;-82
2023/07/26 12:29:02;;;;;;;12.50;8.20;;;;;;;;;;10527876;28;20486;-82
2023/07/26 12:34:06;;;;;;;14.02;7.63;;;;;;;;;;10527957;28;20108;-82
2023/07/26 12:39:08;;;;;;;15.47;8.53;;;;;;;;;;10527596;28;20028;-82
2023/07/26 12:44:09;;;;;;;13.90;7.25;;;;;;;;;;10527227;28;20044;-83
2023/07/26 12:49:10;;;;;;;15.52;7.82;;;;;;;;;;10527610;28;20036;-83
2023/07/26 12:54:11;;;;;;;11.23;8.02;;;;;;;;;;10526907;28;20055;-83
2023/07/26 12:59:13;;;;;;;18.45;9.00;;;;;;;;;;10528082;28;20032;-83
2023/07/26 13:04:14;;;;;;;15.88;8.23;;;;;;;;;;10536380;28;20123;-84
2023/07/26 13:09:15;;;;;;;12.85;8.10;;;;;;;;;;10564593;28;20038;-84
2023/07/26 13:14:16;;;;;;;11.35;7.32;;;;;;;;;;10553399;28;20039;-83
2023/07/26 13:19:17;;;;;;;10.45;6.95;;;;;;;;;;10560678;28;20024;-83
2023/07/26 13:24:18;;;;;;;16.80;8.90;;;;;;;;;;10529661;28;20052;-82
2023/07/26 13:29:19;;;;;;;12.60;7.65;;;;;;;;;;10558422;28;20028;-82
2023/07/26 13:34:19;;;;;;;15.02;7.03;;;;;;;;;;10554236;28;20471;-85
2023/07/26 13:39:21;;;;;;;10.18;6.53;;;;;;;;;;10567112;28;20028;-85
2023/07/26 13:44:22;;;;;;;11.20;6.97;;;;;;;;;;10565632;28;20051;-84
2023/07/26 13:49:23;;;;;;;9.63;5.82;;;;;;;;;;10569689;28;20112;-84
2023/07/26 13:54:24;;;;;;;10.77;5.55;;;;;;;;;;10550092;28;20096;-85
2023/07/26 13:59:25;;;;;;;7.65;5.65;;;;;;;;;;10564588;28;20040;-83
2023/07/26 14:04:26;;;;;;;8.45;4.95;;;;;;;;;;10549244;28;20538;-84
2023/07/26 14:09:28;;;;;;;8.48;4.65;;;;;;;;;;10561128;28;20028;-82
2023/07/26 14:14:29;;;;;;;9.63;6.32;;;;;;;;;;10575852;28;20027;-83
2023/07/26 14:19:30;;;;;;;8.70;5.80;;;;;;;;;;10575716;28;20016;-82
2023/07/26 14:24:32;;;;;;;12.48;6.13;;;;;;;;;;10574555;28;20051;-85
2023/07/26 14:29:33;;;;;;;9.18;5.95;;;;;;;;;;10575386;28;20023;-84
2023/07/26 14:34:34;;;;;;;13.30;6.80;;;;;;;;;;10575922;28;20498;-83
2023/07/26 14:39:35;;;;;;;11.88;7.18;;;;;;;;;;10573361;28;20152;-84
2023/07/26 14:44:36;;;;;;;10.25;5.93;;;;;;;;;;10574613;28;20171;-85
2023/07/26 14:49:39;;;;;;;7.50;6.03;;;;;;;;;;10575043;28;20047;-84
2023/07/26 14:54:40;;;;;;;12.05;8.05;;;;;;;;;;10573060;28;20497;-85
2023/07/26 14:59:41;;;;;;;11.30;6.90;;;;;;;;;;10574434;28;20031;-84
2023/07/26 15:04:42;;;;;;;14.30;8.40;;;;;;;;;;10573941;28;20027;-83
2023/07/26 15:09:44;;;;;;;13.30;8.95;;;;;;;;;;10573906;28;20386;-84
2023/07/26 15:14:45;;;;;;;14.70;8.82;;;;;;;;;;10573584;28;20039;-84
2023/07/26 15:19:46;;;;;;;16.42;9.20;;;;;;;;;;10558208;28;20088;-84
2023/07/26 15:24:47;;;;;;;17.15;8.32;;;;;;;;;;10574005;28;20055;-83
2023/07/26 15:29:48;;;;;;;14.07;8.43;;;;;;;;;;10571285;28;20040;-86
2023/07/26 15:34:54;;;;;;;16.77;8.52;;;;;;;;;;10571840;28;20079;-83
2023/07/26 15:39:55;;;;;;;13.98;7.25;;;;;;;;;;10570800;28;20500;-84
2023/07/26 15:44:56;;;;;;;9.10;6.00;;;;;;;;;;10571880;28;20032;-85
2023/07/26 15:49:57;;;;;;;12.25;8.15;;;;;;;;;;10570816;28;20471;-84
2023/07/26 15:54:58;;;;;;;13.27;7.32;;;;;;;;;;10570592;28;20443;-86
2023/07/26 16:00:00;;;;;;;12.45;7.20;;;;;;;;;;10567212;28;20130;-84
2023/07/26 16:05:01;;;;;;;17.45;7.68;;;;;;;;;;10561503;28;20035;-85
2023/07/26 16:10:02;;;;;;;10.40;7.15;;;;;;;;;;10570129;28;20019;-84
2023/07/26 16:15:04;;;;;;;20.98;10.60;;;;;;;;;;10570670;28;20112;-84
2023/07/26 16:20:05;;;;;;;17.20;9.93;;;;;;;;;;10556796;28;20043;-84
2023/07/26 16:25:06;;;;;;;14.80;8.93;;;;;;;;;;10544244;28;20130;-84
2023/07/26 16:30:08;;;;;;;14.40;9.25;;;;;;;;;;10556293;28;20475;-83
2023/07/26 16:35:09;;;;;;;17.60;9.18;;;;;;;;;;10546623;28;20391;-85
2023/07/26 16:40:10;;;;;;;20.05;10.55;;;;;;;;;;10526867;28;20032;-85
2023/07/26 16:45:11;;;;;;;24.63;11.65;;;;;;;;;;10547760;28;20031;-86
2023/07/26 16:50:14;;;;;;;18.98;9.25;;;;;;;;;;10537304;28;20480;-86
2023/07/26 16:55:15;;;;;;;17.95;10.40;;;;;;;;;;10525310;28;20016;-83
2023/07/26 17:00:16;;;;;;;19.75;9.18;;;;;;;;;;10552531;28;20035;-83
2023/07/26 17:05:17;;;;;;;21.83;10.98;;;;;;;;;;10550554;28;20049;-83
2023/07/26 17:10:18;;;;;;;24.00;10.88;;;;;;;;;;10544858;28;20020;-82
2023/07/26 17:15:19;;;;;;;18.08;10.48;;;;;;;;;;10544630;28;20036;-84
2023/07/26 17:20:20;;;;;;;23.35;11.93;;;;;;;;;;10541156;28;20093;-85
2023/07/26 17:25:21;;;;;;;27.77;14.77;;;;;;;;;;10552676;28;20051;-84
2023/07/26 17:30:22;;;;;;;23.23;12.60;;;;;;;;;;10568966;28;20028;-83
2023/07/26 17:35:27;;;;;;;33.97;15.13;;;;;;;;;;10556498;28;20039;-83
2023/07/26 17:40:33;;;;;;;25.23;13.52;;;;;;;;;;10542053;28;20105;-87
2023/07/26 17:45:34;;;;;;;25.98;13.65;;;;;;;;;;10524729;28;20040;-87
2023/07/26 17:50:35;;;;;;;25.13;13.32;;;;;;;;;;10553516;28;20039;-88
2023/07/26 17:55:37;;;;;;;51.55;19.02;;;;;;;;;;10529376;28;20073;-86
2023/07/26 18:00:38;;;;;;;38.50;18.42;;;;;;;;;;10547336;28;20754;-85
2023/07/26 18:05:39;;;;;;;32.13;15.50;;;;;;;;;;10537243;28;20024;-85
2023/07/26 18:10:40;;;;;;;29.00;15.45;;;;;;;;;;10523619;28;20131;-83
2023/07/26 18:15:41;;;;;;;30.55;15.43;;;;;;;;;;10524567;28;20059;-84
2023/07/26 18:20:42;;;;;;;30.85;15.55;;;;;;;;;;10524926;28;20046;-84
2023/07/26 18:25:43;;;;;;;29.77;14.90;;;;;;;;;;10524631;28;20047;-84
2023/07/26 18:30:44;;;;;;;28.48;14.40;;;;;;;;;;10531029;28;20040;-85
2023/07/26 18:35:45;;;;;;;28.05;14.52;;;;;;;;;;10531271;28;20031;-85
2023/07/26 18:40:46;;;;;;;47.08;26.58;;;;;;;;;;10532505;28;20040;-86
2023/07/26 18:45:48;;;;;;;43.83;23.48;;;;;;;;;;10529324;28;20101;-84
2023/07/26 18:50:52;;;;;;;52.70;27.70;;;;;;;;;;10531179;28;20440;-85
2023/07/26 18:55:53;;;;;;;76.32;33.45;;;;;;;;;;10534443;28;20919;-84
2023/07/26 19:00:54;;;;;;;40.97;22.40;;;;;;;;;;10556299;28;20075;-83
2023/07/26 19:05:56;;;;;;;50.65;24.88;;;;;;;;;;10547655;28;20824;-84
2023/07/26 19:10:57;;;;;;;51.90;26.52;;;;;;;;;;10549789;28;20521;-84
2023/07/26 19:15:59;;;;;;;41.95;22.73;;;;;;;;;;10547861;28;20136;-85
2023/07/26 19:21:01;;;;;;;48.35;25.05;;;;;;;;;;10526377;28;20039;-84
2023/07/26 19:26:02;;;;;;;51.03;26.70;;;;;;;;;;10565178;28;20055;-86
2023/07/26 19:31:03;;;;;;;60.00;28.13;;;;;;;;;;10556011;28;20028;-84
2023/07/26 19:36:05;;;;;;;51.58;27.25;;;;;;;;;;10545158;28;20084;-84
2023/07/26 19:41:14;;;;;;;45.35;24.98;;;;;;;;;;10551609;28;20065;-89
2023/07/26 19:46:16;;;;;;;58.15;27.40;;;;;;;;;;10551273;28;20430;-85
2023/07/26 19:51:20;;;;;;;56.80;26.13;;;;;;;;;;10535560;28;20076;-85
2023/07/26 19:56:21;;;;;;;57.30;28.15;;;;;;;;;;10541779;28;20138;-85
2023/07/26 20:01:22;;;;;;;58.33;26.77;;;;;;;;;;10571824;28;20028;-85
2023/07/26 20:06:23;;;;;;;71.47;31.33;;;;;;;;;;10571597;28;20059;-84
2023/07/26 20:11:24;;;;;;;66.97;29.90;;;;;;;;;;10566300;28;20648;-86
2023/07/26 20:16:25;;;;;;;64.07;29.10;;;;;;;;;;10570543;28;20459;-84
2023/07/26 20:21:26;;;;;;;66.38;29.38;;;;;;;;;;10562340;28;20038;-86
2023/07/26 20:26:29;;;;;;;61.20;27.92;;;;;;;;;;10530985;28;20402;-85
2023/07/26 20:31:30;;;;;;;55.40;27.95;;;;;;;;;;10571356;28;20027;-87
2023/07/26 20:36:32;;;;;;;59.45;27.17;;;;;;;;;;10568379;28;20030;-84
2023/07/26 20:41:33;;;;;;;56.40;27.67;;;;;;;;;;10556891;28;20043;-84
2023/07/26 20:46:34;;;;;;;67.97;33.53;;;;;;;;;;10570148;28;20044;-86
2023/07/26 20:51:35;;;;;;;66.57;33.42;;;;;;;;;;10558835;28;20394;-85
2023/07/26 20:56:36;;;;;;;59.63;29.15;;;;;;;;;;10565024;28;20028;-84
2023/07/26 21:01:37;;;;;;;65.22;30.20;;;;;;;;;;10568292;28;20039;-84
2023/07/26 21:06:38;;;;;;;63.53;32.10;;;;;;;;;;10566351;28;20074;-84
2023/07/26 21:11:39;;;;;;;65.38;31.95;;;;;;;;;;10555285;28;20033;-84
2023/07/26 21:16:40;;;;;;;67.07;33.25;;;;;;;;;;10568018;28;20485;-85
2023/07/26 21:21:41;;;;;;;63.63;31.83;;;;;;;;;;10568306;28;20038;-85
2023/07/26 21:26:42;;;;;;;68.70;32.33;;;;;;;;;;10555023;28;20741;-84
2023/07/26 21:31:43;;;;;;;71.82;33.28;;;;;;;;;;10569535;28;20022;-86
2023/07/26 21:36:44;;;;;;;70.95;32.47;;;;;;;;;;10554860;28;20043;-84
2023/07/26 21:41:46;;;;;;;64.82;29.92;;;;;;;;;;10561359;28;20119;-83
2023/07/26 21:46:47;;;;;;;57.22;29.42;;;;;;;;;;10542168;28;20046;-85
2023/07/26 21:51:48;;;;;;;72.50;31.88;;;;;;;;;;10559669;28;20040;-84
2023/07/26 21:56:49;;;;;;;74.68;33.25;;;;;;;;;;10537131;28;20038;-85
2023/07/26 22:01:50;;;;;;;70.05;31.65;;;;;;;;;;10569195;28;20034;-85
2023/07/26 22:06:51;;;;;;;84.43;34.20;;;;;;;;;;10553303;28;20039;-83
2023/07/26 22:11:52;;;;;;;74.00;33.20;;;;;;;;;;10563361;28;20034;-84
2023/07/26 22:16:53;;;;;;;75.80;31.42;;;;;;;;;;10567149;28;20502;-83
2023/07/26 22:21:54;;;;;;;72.15;37.47;;;;;;;;;;10571167;28;20088;-84
2023/07/26 22:26:55;;;;;;;71.20;35.13;;;;;;;;;;10561028;28;20059;-84
2023/07/26 22:31:57;;;;;;;76.18;34.20;;;;;;;;;;10563447;28;20043;-84
2023/07/26 22:36:58;;;;;;;98.63;37.92;;;;;;;;;;10574700;28;20035;-83
2023/07/26 22:41:59;;;;;;;119.63;43.00;;;;;;;;;;10551713;28;20044;-84
2023/07/26 22:47:00;;;;;;;84.55;36.20;;;;;;;;;;10566485;28;20028;-86
2023/07/26 22:52:01;;;;;;;79.07;31.60;;;;;;;;;;10570549;28;20024;-86
2023/07/26 22:57:02;;;;;;;83.28;35.78;;;;;;;;;;10562833;28;20395;-84
2023/07/26 23:02:03;;;;;;;75.07;32.67;;;;;;;;;;10574897;28;20051;-84
2023/07/26 23:07:04;;;;;;;77.45;33.05;;;;;;;;;;10574134;28;20067;-84
2023/07/26 23:12:05;;;;;;;69.65;33.90;;;;;;;;;;10571312;28;20114;-84
2023/07/26 23:17:06;;;;;;;75.65;34.00;;;;;;;;;;10564551;28;20058;-86
2023/07/26 23:22:07;;;;;;;97.20;40.17;;;;;;;;;;10572922;28;20043;-85
2023/07/26 23:27:08;;;;;;;88.93;39.33;;;;;;;;;;10561231;28;20076;-84
2023/07/26 23:32:10;;;;;;;152.05;49.70;;;;;;;;;;10560436;28;20039;-84
2023/07/26 23:37:11;;;;;;;83.47;37.38;;;;;;;;;;10555378;22;20063;-84
2023/07/26 23:42:12;;;;;;;92.05;40.75;;;;;;;;;;10541689;28;20542;-83
2023/07/26 23:47:13;;;;;;;78.15;34.30;;;;;;;;;;10573250;28;20019;-83
2023/07/26 23:52:14;;;;;;;46.92;23.42;;;;;;;;;;10566431;28;20024;-85
2023/07/26 23:57:15;;;;;;;39.78;19.13;;;;;;;;;;10546045;28;20028;-84
